sensor_id;sensor_type;location;lat;lon;timestamp;temperature;humidity
27368;DHT22;14839;48.106;11.618;2023-07-13T04:01:50;17.50;94.60
27368;DHT22;14839;48.106;11.618;2023-07-13T04:04:15;17.60;94.60
27368;DHT22;14839;48.106;11.618;2023-07-13T04:06:41;17.60;94.60
27368;DHT22;14839;48.106;11.618;2023-07-13T04:09:06;17.50;94.60
27368;DHT22;14839;48.106;11.618;2023-07-13T04:11:32;17.60;94.60
27368;DHT22;14839;48.106;11.618;2023-07-13T04:13:58;17.60;94.60
27368;DHT22;14839;48.106;11.618;2023-07-13T04:16:24;17.60;94.60
27368;DHT22;14839;48.106;11.618;2023-07-13T04:18:50;17.50;94.60
27368;DHT22;14839;48.106;11.618;2023-07-13T04:21:20;17.50;94.60
27368;DHT22;14839;48.106;11.618;2023-07-13T04:23:45;17.50;94.60
27368;DHT22;14839;48.106;11.618;2023-07-13T04:26:11;17.40;94.60
27368;DHT22;14839;48.106;11.618;2023-07-13T04:28:37;17.30;94.60
27368;DHT22;14839;48.106;11.618;2023-07-13T04:31:02;17.30;94.60
27368;DHT22;14839;48.106;11.618;2023-07-13T04:33:28;17.20;94.60
27368;DHT22;14839;48.106;11.618;2023-07-13T04:35:55;17.20;94.60
27368;DHT22;14839;48.106;11.618;2023-07-13T04:38:27;17.30;94.60
27368;DHT22;14839;48.106;11.618;2023-07-13T04:40:59;17.40;94.60
27368;DHT22;14839;48.106;11.618;2023-07-13T04:43:25;17.40;94.60
27368;DHT22;14839;48.106;11.618;2023-07-13T04:45:51;17.40;94.60
27368;DHT22;14839;48.106;11.618;2023-07-13T04:48:17;17.40;94.60
27368;DHT22;14839;48.106;11.618;2023-07-13T04:50:43;17.40;94.60
27368;DHT22;14839;48.106;11.618;2023-07-13T04:53:09;17.30;94.60
27368;DHT22;14839;48.106;11.618;2023-07-13T04:55:36;17.40;94.60
27368;DHT22;14839;48.106;11.618;2023-07-13T04:58:02;17.50;94.60
27368;DHT22;14839;48.106;11.618;2023-07-13T05:00:29;17.40;94.60
27368;DHT22;14839;48.106;11.618;2023-07-13T05:02:55;17.50;94.60
27368;DHT22;14839;48.106;11.618;2023-07-13T05:05:23;17.50;94.60
27368;DHT22;14839;48.106;11.618;2023-07-13T05:07:48;17.60;94.60
27368;DHT22;14839;48.106;11.618;2023-07-13T05:10:14;17.60;94.60
27368;DHT22;14839;48.106;11.618;2023-07-13T05:12:40;17.60;94.60
27368;DHT22;14839;48.106;11.618;2023-07-13T05:15:06;17.60;94.60
27368;DHT22;14839;48.106;11.618;2023-07-13T05:17:32;17.60;94.60
27368;DHT22;14839;48.106;11.618;2023-07-13T05:19:57;17.50;94.60
27368;DHT22;14839;48.106;11.618;2023-07-13T05:22:23;17.60;94.60
27368;DHT22;14839;48.106;11.618;2023-07-13T05:24:48;17.60;94.60
27368;DHT22;14839;48.106;11.618;2023-07-13T05:27:14;17.60;94.60
27368;DHT22;14839;48.106;11.618;2023-07-13T05:29:40;17.60;94.60
27368;DHT22;14839;48.106;11.618;2023-07-13T05:32:05;17.60;94.60
27368;DHT22;14839;48.106;11.618;2023-07-13T05:34:31;17.70;94.60
27368;DHT22;14839;48.106;11.618;2023-07-13T05:36:57;17.70;94.60
27368;DHT22;14839;48.106;11.618;2023-07-13T05:39:22;17.70;94.60
27368;DHT22;14839;48.106;11.618;2023-07-13T05:41:48;17.70;94.60
27368;DHT22;14839;48.106;11.618;2023-07-13T05:44:14;17.80;94.60
27368;DHT22;14839;48.106;11.618;2023-07-13T05:46:39;17.80;94.60
27368;DHT22;14839;48.106;11.618;2023-07-13T05:49:05;17.80;94.60
27368;DHT22;14839;48.106;11.618;2023-07-13T05:51:31;17.80;94.60
27368;DHT22;14839;48.106;11.618;2023-07-13T05:53:56;17.90;94.60
27368;DHT22;14839;48.106;11.618;2023-07-13T05:56:22;18.00;94.60
27368;DHT22;14839;48.106;11.618;2023-07-13T05:58:48;18.00;94.60
27368;DHT22;14839;48.106;11.618;2023-07-13T06:01:15;18.10;94.60
27368;DHT22;14839;48.106;11.618;2023-07-13T06:03:40;18.20;94.60
27368;DHT22;14839;48.106;11.618;2023-07-13T06:06:08;18.30;94.60
27368;DHT22;14839;48.106;11.618;2023-07-13T06:08:34;18.40;94.60
27368;DHT22;14839;48.106;11.618;2023-07-13T06:11:10;18.50;94.60
27368;DHT22;14839;48.106;11.618;2023-07-13T06:13:37;18.60;94.60
27368;DHT22;14839;48.106;11.618;2023-07-13T06:16:04;18.70;94.60
27368;DHT22;14839;48.106;11.618;2023-07-13T06:18:31;18.80;94.60
27368;DHT22;14839;48.106;11.618;2023-07-13T06:20:56;18.90;94.60
27368;DHT22;14839;48.106;11.618;2023-07-13T06:23:22;18.90;94.60
27368;DHT22;14839;48.106;11.618;2023-07-13T06:25:48;18.90;94.60
27368;DHT22;14839;48.106;11.618;2023-07-13T06:28:13;19.00;94.60
27368;DHT22;14839;48.106;11.618;2023-07-13T06:30:39;19.10;94.60
27368;DHT22;14839;48.106;11.618;2023-07-13T06:33:05;19.30;94.60
27368;DHT22;14839;48.106;11.618;2023-07-13T06:35:31;19.40;94.60
27368;DHT22;14839;48.106;11.618;2023-07-13T06:37:56;19.50;94.60
27368;DHT22;14839;48.106;11.618;2023-07-13T06:40:22;19.60;94.60
27368;DHT22;14839;48.106;11.618;2023-07-13T06:42:47;19.60;94.60
27368;DHT22;14839;48.106;11.618;2023-07-13T06:45:13;19.70;94.60
27368;DHT22;14839;48.106;11.618;2023-07-13T06:47:38;19.70;94.60
27368;DHT22;14839;48.106;11.618;2023-07-13T06:50:04;19.70;94.60
27368;DHT22;14839;48.106;11.618;2023-07-13T06:52:30;19.70;94.60
27368;DHT22;14839;48.106;11.618;2023-07-13T06:54:55;19.70;94.60
27368;DHT22;14839;48.106;11.618;2023-07-13T06:57:21;19.70;94.60
27368;DHT22;14839;48.106;11.618;2023-07-13T06:59:46;19.70;94.60
27368;DHT22;14839;48.106;11.618;2023-07-13T07:02:12;19.60;94.60
27368;DHT22;14839;48.106;11.618;2023-07-13T07:04:38;19.60;94.60
27368;DHT22;14839;48.106;11.618;2023-07-13T07:07:03;19.50;94.60
27368;DHT22;14839;48.106;11.618;2023-07-13T07:09:29;19.50;94.60
27368;DHT22;14839;48.106;11.618;2023-07-13T07:11:57;19.50;94.60
27368;DHT22;14839;48.106;11.618;2023-07-13T07:14:23;19.60;94.60
27368;DHT22;14839;48.106;11.618;2023-07-13T07:16:49;19.70;94.60
27368;DHT22;14839;48.106;11.618;2023-07-13T07:19:15;19.80;94.60
27368;DHT22;14839;48.106;11.618;2023-07-13T07:21:40;20.00;94.60
27368;DHT22;14839;48.106;11.618;2023-07-13T07:24:06;20.00;94.60
27368;DHT22;14839;48.106;11.618;2023-07-13T07:26:33;20.10;94.60
27368;DHT22;14839;48.106;11.618;2023-07-13T07:28:58;20.00;94.60
27368;DHT22;14839;48.106;11.618;2023-07-13T07:31:24;19.80;94.60
27368;DHT22;14839;48.106;11.618;2023-07-13T07:33:49;19.80;94.60
27368;DHT22;14839;48.106;11.618;2023-07-13T07:36:16;19.80;94.60
27368;DHT22;14839;48.106;11.618;2023-07-13T07:38:42;19.80;94.60
27368;DHT22;14839;48.106;11.618;2023-07-13T07:41:07;19.70;94.60
27368;DHT22;14839;48.106;11.618;2023-07-13T07:43:33;19.60;94.60
27368;DHT22;14839;48.106;11.618;2023-07-13T07:45:59;19.40;94.60
27368;DHT22;14839;48.106;11.618;2023-07-13T07:48:24;19.30;94.60
27368;DHT22;14839;48.106;11.618;2023-07-13T07:50:50;19.20;94.60
27368;DHT22;14839;48.106;11.618;2023-07-13T07:53:15;19.20;94.60
27368;DHT22;14839;48.106;11.618;2023-07-13T07:55:41;19.30;94.60
27368;DHT22;14839;48.106;11.618;2023-07-13T07:58:09;19.30;94.60
27368;DHT22;14839;48.106;11.618;2023-07-13T08:00:35;19.30;94.60
27368;DHT22;14839;48.106;11.618;2023-07-13T08:03:01;19.30;94.60
27368;DHT22;14839;48.106;11.618;2023-07-13T08:05:27;19.30;94.60
27368;DHT22;14839;48.106;11.618;2023-07-13T08:07:53;19.20;94.60
27368;DHT22;14839;48.106;11.618;2023-07-13T08:10:19;19.20;94.60
27368;DHT22;14839;48.106;11.618;2023-07-13T08:12:44;19.20;94.60
27368;DHT22;14839;48.106;11.618;2023-07-13T08:15:13;19.10;94.60
27368;DHT22;14839;48.106;11.618;2023-07-13T08:17:39;19.10;94.60
27368;DHT22;14839;48.106;11.618;2023-07-13T08:20:06;19.00;94.60
27368;DHT22;14839;48.106;11.618;2023-07-13T08:22:31;19.00;94.60
27368;DHT22;14839;48.106;11.618;2023-07-13T08:24:58;19.00;94.60
27368;DHT22;14839;48.106;11.618;2023-07-13T08:27:25;18.90;94.60
27368;DHT22;14839;48.106;11.618;2023-07-13T08:29:51;18.90;94.60
27368;DHT22;14839;48.106;11.618;2023-07-13T08:32:19;18.80;94.60
27368;DHT22;14839;48.106;11.618;2023-07-13T08:34:44;18.80;94.60
27368;DHT22;14839;48.106;11.618;2023-07-13T08:37:10;18.80;94.60
27368;DHT22;14839;48.106;11.618;2023-07-13T08:39:36;18.70;94.60
27368;DHT22;14839;48.106;11.618;2023-07-13T08:42:14;18.80;94.60
27368;DHT22;14839;48.106;11.618;2023-07-13T08:47:33;18.80;94.60
27368;DHT22;14839;48.106;11.618;2023-07-13T08:50:01;18.70;94.60
27368;DHT22;14839;48.106;11.618;2023-07-13T08:52:37;18.70;94.60
27368;DHT22;14839;48.106;11.618;2023-07-13T08:55:26;18.70;94.60
27368;DHT22;14839;48.106;11.618;2023-07-13T08:58:00;18.60;94.60
27368;DHT22;14839;48.106;11.618;2023-07-13T09:00:44;18.70;94.60
27368;DHT22;14839;48.106;11.618;2023-07-13T09:03:30;18.70;94.60
27368;DHT22;14839;48.106;11.618;2023-07-13T09:05:59;18.80;94.60
27368;DHT22;14839;48.106;11.618;2023-07-13T09:16:49;19.00;94.60
27368;DHT22;14839;48.106;11.618;2023-07-13T09:19:27;19.10;94.60
27368;DHT22;14839;48.106;11.618;2023-07-13T09:21:55;19.20;94.60
27368;DHT22;14839;48.106;11.618;2023-07-13T09:24:41;19.30;94.60
27368;DHT22;14839;48.106;11.618;2023-07-13T09:27:19;19.40;94.60
27368;DHT22;14839;48.106;11.618;2023-07-13T09:29:50;19.30;94.60
27368;DHT22;14839;48.106;11.618;2023-07-13T09:32:18;19.40;94.60
27368;DHT22;14839;48.106;11.618;2023-07-13T09:34:51;19.40;94.60
27368;DHT22;14839;48.106;11.618;2023-07-13T09:37:17;19.50;94.60
27368;DHT22;14839;48.106;11.618;2023-07-13T09:39:44;19.70;94.60
27368;DHT22;14839;48.106;11.618;2023-07-13T09:47:27;19.90;94.60
27368;DHT22;14839;48.106;11.618;2023-07-13T09:49:58;19.90;94.60
27368;DHT22;14839;48.106;11.618;2023-07-13T09:52:25;19.80;94.60
27368;DHT22;14839;48.106;11.618;2023-07-13T09:54:53;19.70;94.60
27368;DHT22;14839;48.106;11.618;2023-07-13T09:57:26;19.80;94.60
27368;DHT22;14839;48.106;11.618;2023-07-13T09:59:53;19.80;94.60
27368;DHT22;14839;48.106;11.618;2023-07-13T10:02:34;20.00;94.60
27368;DHT22;14839;48.106;11.618;2023-07-13T10:05:10;20.10;94.60
27368;DHT22;14839;48.106;11.618;2023-07-13T10:07:43;20.30;94.60
27368;DHT22;14839;48.106;11.618;2023-07-13T10:10:22;20.50;94.60
27368;DHT22;14839;48.106;11.618;2023-07-13T10:12:50;20.70;94.60
27368;DHT22;14839;48.106;11.618;2023-07-13T10:15:19;20.90;94.60
27368;DHT22;14839;48.106;11.618;2023-07-13T10:17:46;21.20;94.60
27368;DHT22;14839;48.106;11.618;2023-07-13T10:20:15;21.50;92.60
27368;DHT22;14839;48.106;11.618;2023-07-13T10:23:00;21.70;92.80
27368;DHT22;14839;48.106;11.618;2023-07-13T10:25:32;22.10;91.10
27368;DHT22;14839;48.106;11.618;2023-07-13T10:28:09;22.30;88.10
27368;DHT22;14839;48.106;11.618;2023-07-13T10:30:41;22.50;88.60
27368;DHT22;14839;48.106;11.618;2023-07-13T10:33:12;22.80;86.80
27368;DHT22;14839;48.106;11.618;2023-07-13T10:35:40;23.20;86.90
27368;DHT22;14839;48.106;11.618;2023-07-13T10:38:10;23.30;82.00
27368;DHT22;14839;48.106;11.618;2023-07-13T10:40:59;23.20;74.80
27368;DHT22;14839;48.106;11.618;2023-07-13T10:43:42;23.00;79.90
27368;DHT22;14839;48.106;11.618;2023-07-13T10:46:12;23.10;83.30
27368;DHT22;14839;48.106;11.618;2023-07-13T10:48:40;23.40;81.70
27368;DHT22;14839;48.106;11.618;2023-07-13T10:51:08;23.50;84.20
27368;DHT22;14839;48.106;11.618;2023-07-13T10:53:37;23.70;81.40
27368;DHT22;14839;48.106;11.618;2023-07-13T10:58:41;24.60;80.90
27368;DHT22;14839;48.106;11.618;2023-07-13T11:01:18;24.90;77.80
27368;DHT22;14839;48.106;11.618;2023-07-13T11:14:02;24.00;68.90
27368;DHT22;14839;48.106;11.618;2023-07-13T11:16:37;24.00;67.60
27368;DHT22;14839;48.106;11.618;2023-07-13T11:21:32;24.00;66.40
27368;DHT22;14839;48.106;11.618;2023-07-13T11:24:16;24.10;68.80
27368;DHT22;14839;48.106;11.618;2023-07-13T11:31:51;24.40;66.40
27368;DHT22;14839;48.106;11.618;2023-07-13T11:34:19;24.50;66.70
27368;DHT22;14839;48.106;11.618;2023-07-13T11:36:50;24.60;64.10
27368;DHT22;14839;48.106;11.618;2023-07-13T11:39:32;24.30;65.90
27368;DHT22;14839;48.106;11.618;2023-07-13T11:42:02;23.90;66.10
27368;DHT22;14839;48.106;11.618;2023-07-13T11:44:30;23.80;70.40
27368;DHT22;14839;48.106;11.618;2023-07-13T11:46:58;24.00;69.80
27368;DHT22;14839;48.106;11.618;2023-07-13T11:49:30;23.90;66.50
27368;DHT22;14839;48.106;11.618;2023-07-13T11:51:58;23.90;67.60
27368;DHT22;14839;48.106;11.618;2023-07-13T11:54:33;24.00;70.10
27368;DHT22;14839;48.106;11.618;2023-07-13T11:57:02;24.20;67.10
27368;DHT22;14839;48.106;11.618;2023-07-13T11:59:32;24.20;64.70
27368;DHT22;14839;48.106;11.618;2023-07-13T12:01:59;23.70;65.60
27368;DHT22;14839;48.106;11.618;2023-07-13T12:04:29;23.70;69.10
27368;DHT22;14839;48.106;11.618;2023-07-13T12:06:58;23.60;67.10
27368;DHT22;14839;48.106;11.618;2023-07-13T12:09:28;23.60;70.10
27368;DHT22;14839;48.106;11.618;2023-07-13T12:11:54;23.70;69.40
27368;DHT22;14839;48.106;11.618;2023-07-13T12:14:19;23.80;68.20
27368;DHT22;14839;48.106;11.618;2023-07-13T12:16:46;24.00;68.80
27368;DHT22;14839;48.106;11.618;2023-07-13T12:19:41;24.20;65.80
27368;DHT22;14839;48.106;11.618;2023-07-13T12:22:09;24.30;66.70
27368;DHT22;14839;48.106;11.618;2023-07-13T12:24:37;24.50;63.40
27368;DHT22;14839;48.106;11.618;2023-07-13T12:27:04;24.60;66.20
27368;DHT22;14839;48.106;11.618;2023-07-13T12:29:32;24.70;64.40
27368;DHT22;14839;48.106;11.618;2023-07-13T12:31:58;24.70;64.60
27368;DHT22;14839;48.106;11.618;2023-07-13T12:34:25;24.80;65.00
27368;DHT22;14839;48.106;11.618;2023-07-13T12:36:58;24.60;67.00
27368;DHT22;14839;48.106;11.618;2023-07-13T12:39:34;24.50;65.00
27368;DHT22;14839;48.106;11.618;2023-07-13T12:42:20;24.40;66.40
27368;DHT22;14839;48.106;11.618;2023-07-13T12:44:47;24.40;66.10
27368;DHT22;14839;48.106;11.618;2023-07-13T12:47:14;24.30;70.60
27368;DHT22;14839;48.106;11.618;2023-07-13T12:49:49;24.40;65.80
27368;DHT22;14839;48.106;11.618;2023-07-13T12:52:36;24.30;66.20
27368;DHT22;14839;48.106;11.618;2023-07-13T12:55:08;24.30;66.20
27368;DHT22;14839;48.106;11.618;2023-07-13T12:57:50;24.30;67.90
27368;DHT22;14839;48.106;11.618;2023-07-13T13:02:51;24.30;66.70
27368;DHT22;14839;48.106;11.618;2023-07-13T13:05:17;24.20;67.40
27368;DHT22;14839;48.106;11.618;2023-07-13T13:07:43;24.10;68.60
27368;DHT22;14839;48.106;11.618;2023-07-13T13:10:12;24.30;68.50
27368;DHT22;14839;48.106;11.618;2023-07-13T13:12:39;24.50;68.20
27368;DHT22;14839;48.106;11.618;2023-07-13T13:15:05;24.70;66.20
27368;DHT22;14839;48.106;11.618;2023-07-13T13:17:32;24.70;65.60
27368;DHT22;14839;48.106;11.618;2023-07-13T13:19:58;24.80;66.20
27368;DHT22;14839;48.106;11.618;2023-07-13T13:22:23;24.80;64.90
27368;DHT22;14839;48.106;11.618;2023-07-13T13:24:49;24.90;65.90
27368;DHT22;14839;48.106;11.618;2023-07-13T13:27:17;25.00;64.40
27368;DHT22;14839;48.106;11.618;2023-07-13T13:29:43;25.10;64.30
27368;DHT22;14839;48.106;11.618;2023-07-13T13:32:12;25.20;64.70
27368;DHT22;14839;48.106;11.618;2023-07-13T13:34:38;25.30;63.50
27368;DHT22;14839;48.106;11.618;2023-07-13T13:37:20;25.20;63.70
27368;DHT22;14839;48.106;11.618;2023-07-13T13:39:47;25.10;64.60
27368;DHT22;14839;48.106;11.618;2023-07-13T13:42:16;25.10;65.20
27368;DHT22;14839;48.106;11.618;2023-07-13T13:44:41;25.20;64.60
27368;DHT22;14839;48.106;11.618;2023-07-13T13:47:21;25.30;64.00
27368;DHT22;14839;48.106;11.618;2023-07-13T13:49:47;25.30;63.70
27368;DHT22;14839;48.106;11.618;2023-07-13T13:52:13;25.30;62.50
27368;DHT22;14839;48.106;11.618;2023-07-13T13:54:39;25.00;61.40
27368;DHT22;14839;48.106;11.618;2023-07-13T13:57:05;24.90;63.10
27368;DHT22;14839;48.106;11.618;2023-07-13T13:59:30;24.90;64.90
27368;DHT22;14839;48.106;11.618;2023-07-13T14:01:58;25.00;63.80
27368;DHT22;14839;48.106;11.618;2023-07-13T14:04:25;25.10;62.60
27368;DHT22;14839;48.106;11.618;2023-07-13T14:06:51;25.20;62.00
27368;DHT22;14839;48.106;11.618;2023-07-13T14:09:18;25.20;62.90
27368;DHT22;14839;48.106;11.618;2023-07-13T14:11:45;25.20;60.50
27368;DHT22;14839;48.106;11.618;2023-07-13T14:14:20;25.20;62.50
27368;DHT22;14839;48.106;11.618;2023-07-13T14:16:47;25.10;61.60
27368;DHT22;14839;48.106;11.618;2023-07-13T14:19:19;25.00;61.60
27368;DHT22;14839;48.106;11.618;2023-07-13T14:21:44;25.00;62.30
27368;DHT22;14839;48.106;11.618;2023-07-13T14:24:10;25.00;62.80
27368;DHT22;14839;48.106;11.618;2023-07-13T14:26:39;25.00;63.20
27368;DHT22;14839;48.106;11.618;2023-07-13T14:29:11;24.90;62.50
27368;DHT22;14839;48.106;11.618;2023-07-13T14:31:37;24.90;60.80
27368;DHT22;14839;48.106;11.618;2023-07-13T14:34:03;24.80;61.60
27368;DHT22;14839;48.106;11.618;2023-07-13T14:36:31;24.50;64.10
27368;DHT22;14839;48.106;11.618;2023-07-13T14:38:58;24.60;62.60
27368;DHT22;14839;48.106;11.618;2023-07-13T14:41:24;24.60;64.40
27368;DHT22;14839;48.106;11.618;2023-07-13T14:43:50;24.60;62.80
27368;DHT22;14839;48.106;11.618;2023-07-13T14:46:29;24.60;61.30
27368;DHT22;14839;48.106;11.618;2023-07-13T14:49:02;24.40;62.80
27368;DHT22;14839;48.106;11.618;2023-07-13T14:51:29;24.30;62.50
27368;DHT22;14839;48.106;11.618;2023-07-13T14:53:55;24.30;63.10
27368;DHT22;14839;48.106;11.618;2023-07-13T14:56:20;24.50;62.80
27368;DHT22;14839;48.106;11.618;2023-07-13T14:58:46;24.60;62.80
27368;DHT22;14839;48.106;11.618;2023-07-13T15:01:13;24.70;61.30
27368;DHT22;14839;48.106;11.618;2023-07-13T15:03:44;24.80;62.80
27368;DHT22;14839;48.106;11.618;2023-07-13T15:06:14;24.70;60.80
27368;DHT22;14839;48.106;11.618;2023-07-13T15:08:39;24.50;62.00
27368;DHT22;14839;48.106;11.618;2023-07-13T15:11:09;24.20;63.40
27368;DHT22;14839;48.106;11.618;2023-07-13T15:13:37;24.20;63.10
27368;DHT22;14839;48.106;11.618;2023-07-13T15:16:04;24.20;63.40
27368;DHT22;14839;48.106;11.618;2023-07-13T15:18:30;24.20;63.80
27368;DHT22;14839;48.106;11.618;2023-07-13T15:20:56;24.30;62.80
27368;DHT22;14839;48.106;11.618;2023-07-13T15:23:25;24.30;63.50
27368;DHT22;14839;48.106;11.618;2023-07-13T15:25:51;24.50;63.50
27368;DHT22;14839;48.106;11.618;2023-07-13T15:28:17;24.20;60.50
27368;DHT22;14839;48.106;11.618;2023-07-13T15:30:48;24.20;61.70
27368;DHT22;14839;48.106;11.618;2023-07-13T15:33:23;24.20;62.60
27368;DHT22;14839;48.106;11.618;2023-07-13T15:35:50;24.10;62.50
27368;DHT22;14839;48.106;11.618;2023-07-13T15:38:25;24.10;62.60
27368;DHT22;14839;48.106;11.618;2023-07-13T15:40:53;24.10;62.00
27368;DHT22;14839;48.106;11.618;2023-07-13T15:43:19;24.10;62.80
27368;DHT22;14839;48.106;11.618;2023-07-13T15:45:46;24.10;62.50
27368;DHT22;14839;48.106;11.618;2023-07-13T15:48:17;24.20;63.10
27368;DHT22;14839;48.106;11.618;2023-07-13T15:50:49;24.10;61.70
27368;DHT22;14839;48.106;11.618;2023-07-13T15:53:25;24.10;62.60
27368;DHT22;14839;48.106;11.618;2023-07-13T15:55:52;24.20;61.40
27368;DHT22;14839;48.106;11.618;2023-07-13T15:58:18;24.10;62.60
27368;DHT22;14839;48.106;11.618;2023-07-13T16:00:44;24.10;61.90
27368;DHT22;14839;48.106;11.618;2023-07-13T16:03:10;24.10;62.90
27368;DHT22;14839;48.106;11.618;2023-07-13T16:05:37;24.10;61.30
27368;DHT22;14839;48.106;11.618;2023-07-13T16:08:04;24.20;63.20
27368;DHT22;14839;48.106;11.618;2023-07-13T16:10:37;24.10;63.50
27368;DHT22;14839;48.106;11.618;2023-07-13T16:13:15;24.20;64.30
27368;DHT22;14839;48.106;11.618;2023-07-13T16:15:41;24.20;63.40
27368;DHT22;14839;48.106;11.618;2023-07-13T16:18:10;24.10;62.60
27368;DHT22;14839;48.106;11.618;2023-07-13T16:20:38;24.10;62.50
27368;DHT22;14839;48.106;11.618;2023-07-13T16:23:04;24.00;63.80
27368;DHT22;14839;48.106;11.618;2023-07-13T16:25:30;23.90;62.90
27368;DHT22;14839;48.106;11.618;2023-07-13T16:27:56;23.90;63.40
27368;DHT22;14839;48.106;11.618;2023-07-13T16:30:26;23.90;63.40
27368;DHT22;14839;48.106;11.618;2023-07-13T16:32:55;24.00;63.80
27368;DHT22;14839;48.106;11.618;2023-07-13T16:35:25;24.00;63.50
27368;DHT22;14839;48.106;11.618;2023-07-13T16:37:51;24.00;64.10
27368;DHT22;14839;48.106;11.618;2023-07-13T16:40:29;23.90;62.20
27368;DHT22;14839;48.106;11.618;2023-07-13T16:42:57;23.90;64.10
27368;DHT22;14839;48.106;11.618;2023-07-13T16:45:24;23.90;64.10
27368;DHT22;14839;48.106;11.618;2023-07-13T16:47:54;23.90;64.70
27368;DHT22;14839;48.106;11.618;2023-07-13T16:50:22;23.90;64.30
27368;DHT22;14839;48.106;11.618;2023-07-13T16:52:49;23.90;63.80
27368;DHT22;14839;48.106;11.618;2023-07-13T16:55:16;23.90;63.80
27368;DHT22;14839;48.106;11.618;2023-07-13T16:57:45;23.80;63.80
27368;DHT22;14839;48.106;11.618;2023-07-13T17:00:16;23.90;63.80
27368;DHT22;14839;48.106;11.618;2023-07-13T17:02:44;23.80;63.10
27368;DHT22;14839;48.106;11.618;2023-07-13T17:05:10;23.90;64.40
27368;DHT22;14839;48.106;11.618;2023-07-13T17:07:37;23.80;63.80
27368;DHT22;14839;48.106;11.618;2023-07-13T17:10:04;23.90;62.30
27368;DHT22;14839;48.106;11.618;2023-07-13T17:12:30;23.80;63.10
27368;DHT22;14839;48.106;11.618;2023-07-13T17:14:56;23.80;62.90
27368;DHT22;14839;48.106;11.618;2023-07-13T17:17:28;23.80;64.30
27368;DHT22;14839;48.106;11.618;2023-07-13T17:19:54;23.70;64.30
27368;DHT22;14839;48.106;11.618;2023-07-13T17:22:20;23.70;64.10
27368;DHT22;14839;48.106;11.618;2023-07-13T17:24:46;23.50;64.60
27368;DHT22;14839;48.106;11.618;2023-07-13T17:27:14;23.40;64.60
27368;DHT22;14839;48.106;11.618;2023-07-13T17:29:40;23.40;66.20
27368;DHT22;14839;48.106;11.618;2023-07-13T17:32:12;23.20;65.60
27368;DHT22;14839;48.106;11.618;2023-07-13T17:34:40;23.20;66.20
27368;DHT22;14839;48.106;11.618;2023-07-13T17:37:12;23.20;67.00
27368;DHT22;14839;48.106;11.618;2023-07-13T17:39:39;23.20;65.20
27368;DHT22;14839;48.106;11.618;2023-07-13T17:42:05;23.10;66.10
27368;DHT22;14839;48.106;11.618;2023-07-13T17:44:31;23.10;67.10
27368;DHT22;14839;48.106;11.618;2023-07-13T17:46:57;23.00;65.00
27368;DHT22;14839;48.106;11.618;2023-07-13T17:49:24;22.90;67.00
27368;DHT22;14839;48.106;11.618;2023-07-13T17:51:58;22.80;67.00
27368;DHT22;14839;48.106;11.618;2023-07-13T17:54:25;22.70;66.50
27368;DHT22;14839;48.106;11.618;2023-07-13T17:56:52;22.70;66.20
27368;DHT22;14839;48.106;11.618;2023-07-13T17:59:18;22.70;67.70
27368;DHT22;14839;48.106;11.618;2023-07-13T18:01:45;22.60;68.60
27368;DHT22;14839;48.106;11.618;2023-07-13T18:04:13;22.60;68.00
27368;DHT22;14839;48.106;11.618;2023-07-13T18:06:42;22.50;68.50
27368;DHT22;14839;48.106;11.618;2023-07-13T18:09:20;22.50;68.60
27368;DHT22;14839;48.106;11.618;2023-07-13T18:11:46;22.40;69.20
27368;DHT22;14839;48.106;11.618;2023-07-13T18:14:12;22.40;68.80
27368;DHT22;14839;48.106;11.618;2023-07-13T18:16:38;22.40;69.70
27368;DHT22;14839;48.106;11.618;2023-07-13T18:19:06;22.30;70.10
27368;DHT22;14839;48.106;11.618;2023-07-13T18:21:41;22.20;70.30
27368;DHT22;14839;48.106;11.618;2023-07-13T18:24:08;22.10;71.20
27368;DHT22;14839;48.106;11.618;2023-07-13T18:26:35;22.00;71.80
27368;DHT22;14839;48.106;11.618;2023-07-13T18:29:03;21.90;71.50
27368;DHT22;14839;48.106;11.618;2023-07-13T18:31:33;21.80;72.80
27368;DHT22;14839;48.106;11.618;2023-07-13T18:34:00;21.80;72.50
27368;DHT22;14839;48.106;11.618;2023-07-13T18:36:27;21.70;74.30
27368;DHT22;14839;48.106;11.618;2023-07-13T18:38:53;21.60;74.60
27368;DHT22;14839;48.106;11.618;2023-07-13T18:41:20;21.60;74.50
27368;DHT22;14839;48.106;11.618;2023-07-13T18:43:48;21.50;75.10
27368;DHT22;14839;48.106;11.618;2023-07-13T18:46:26;21.50;76.60
27368;DHT22;14839;48.106;11.618;2023-07-13T18:48:57;21.40;76.00
27368;DHT22;14839;48.106;11.618;2023-07-13T18:51:23;21.40;76.10
27368;DHT22;14839;48.106;11.618;2023-07-13T18:53:49;21.30;75.40
27368;DHT22;14839;48.106;11.618;2023-07-13T18:56:14;21.20;76.00
27368;DHT22;14839;48.106;11.618;2023-07-13T18:58:41;21.20;76.00
27368;DHT22;14839;48.106;11.618;2023-07-13T19:01:30;21.20;77.30
27368;DHT22;14839;48.106;11.618;2023-07-13T19:03:56;21.10;78.10
27368;DHT22;14839;48.106;11.618;2023-07-13T19:06:22;21.00;78.70
27368;DHT22;14839;48.106;11.618;2023-07-13T19:08:48;21.00;78.50
27368;DHT22;14839;48.106;11.618;2023-07-13T19:11:18;21.00;78.10
27368;DHT22;14839;48.106;11.618;2023-07-13T19:13:44;20.90;78.20
27368;DHT22;14839;48.106;11.618;2023-07-13T19:16:12;20.90;79.30
27368;DHT22;14839;48.106;11.618;2023-07-13T19:18:38;20.90;79.30
27368;DHT22;14839;48.106;11.618;2023-07-13T19:21:15;20.90;79.30
27368;DHT22;14839;48.106;11.618;2023-07-13T19:23:43;20.90;78.50
27368;DHT22;14839;48.106;11.618;2023-07-13T19:26:19;20.90;79.90
27368;DHT22;14839;48.106;11.618;2023-07-13T19:28:46;20.90;80.60
27368;DHT22;14839;48.106;11.618;2023-07-13T19:31:23;20.80;79.70
27368;DHT22;14839;48.106;11.618;2023-07-13T19:33:49;20.80;81.40
27368;DHT22;14839;48.106;11.618;2023-07-13T19:36:17;20.80;80.80
27368;DHT22;14839;48.106;11.618;2023-07-13T19:38:48;20.80;81.40
27368;DHT22;14839;48.106;11.618;2023-07-13T19:41:17;20.70;82.90
27368;DHT22;14839;48.106;11.618;2023-07-13T19:43:44;20.70;82.40
27368;DHT22;14839;48.106;11.618;2023-07-13T19:46:32;20.70;82.90
27368;DHT22;14839;48.106;11.618;2023-07-13T19:48:59;20.60;83.50
27368;DHT22;14839;48.106;11.618;2023-07-13T19:51:27;20.60;84.10
27368;DHT22;14839;48.106;11.618;2023-07-13T19:54:00;20.60;84.80
27368;DHT22;14839;48.106;11.618;2023-07-13T19:56:26;20.60;85.40
27368;DHT22;14839;48.106;11.618;2023-07-13T19:58:52;20.60;85.70
27368;DHT22;14839;48.106;11.618;2023-07-13T20:01:18;20.60;86.20
27368;DHT22;14839;48.106;11.618;2023-07-13T20:03:44;20.60;86.30